DLH840 KTPA-EDDF
Flight info
| Callsign | DLH840 |
|---|---|
| Flight time | N/A |
| Altitude | 29000 |
| Route | BAYPO2 CAMJO DCT VIYAP Q87 HINTZ/N0501F310 Q87 ALWZZ/N0493F330 Q87 GEARS DCT BBOBO Q22 FOXWD DCT EBONY N505B ALLRY/M084F330 DCT 51N050W 52N040W 53N030W 53N020W DCT LIMRI DCT XETBO/N0477F350 DCT KER DCT ENJEX DCT ADHAV/N0477F370 DCT AXNEF DCT ZIPWE DCT OZZIL DCT SAWPE Q63 CPT UL9 BIG L607 KONAN DCT KOK UL607 FERDI DCT REMBA DCT SPI T180 NIVNU T847 IMCOM IMCOM1A |
| Aircraft | A343/H-SDE2E3FGHIJ4J5M1RWXY/LB1D1 |
Departure
| Time | 2026-05-06 17:02 |
|---|---|
| Airport | Tampa International Airport (KTPA) |
Arrival
| Time | N/A |
|---|---|
| Airport | Frankfurt Main Airport (EDDF) |
| Time | Latitude | Longitude | Altitude | Speed | Heading |
|---|---|---|---|---|---|
| 2026-05-06 16:49 | 27.97575 | -82.53164 | 44 ft | 0 kts | 291° |
| 2026-05-06 16:52 | 27.97571 | -82.53154 | 44 ft | 3 kts | 290° |
| 2026-05-06 16:52 | 27.97564 | -82.53127 | 44 ft | 3 kts | 282° |
| 2026-05-06 16:52 | 27.97561 | -82.53106 | 43 ft | 2 kts | 261° |
| 2026-05-06 16:52 | 27.97563 | -82.53091 | 41 ft | 2 kts | 225° |
| 2026-05-06 16:53 | 27.97571 | -82.53083 | 41 ft | 2 kts | 200° |
| 2026-05-06 16:53 | 27.97582 | -82.53079 | 43 ft | 2 kts | 186° |
| 2026-05-06 16:53 | 27.97593 | -82.53077 | 40 ft | 2 kts | 181° |
| 2026-05-06 16:53 | 27.97595 | -82.53077 | 41 ft | 2 kts | 180° |
| 2026-05-06 16:54 | 27.97604 | -82.53077 | 43 ft | 0 kts | 180° |
| 2026-05-06 16:55 | 27.97602 | -82.53077 | 42 ft | 2 kts | 175° |
| 2026-05-06 16:55 | 27.97564 | -82.53072 | 43 ft | 9 kts | 175° |
| 2026-05-06 16:56 | 27.97482 | -82.53071 | 44 ft | 14 kts | 182° |
| 2026-05-06 16:56 | 27.97361 | -82.53076 | 43 ft | 20 kts | 182° |
| 2026-05-06 16:56 | 27.97319 | -82.53101 | 41 ft | 4 kts | 233° |
| 2026-05-06 16:56 | 27.97307 | -82.53178 | 40 ft | 15 kts | 271° |
| 2026-05-06 16:57 | 27.97311 | -82.53338 | 41 ft | 25 kts | 272° |
| 2026-05-06 16:57 | 27.97332 | -82.53570 | 33 ft | 36 kts | 284° |
| 2026-05-06 16:57 | 27.97464 | -82.53841 | 38 ft | 42 kts | 303° |
| 2026-05-06 16:57 | 27.97544 | -82.54056 | 37 ft | 3 kts | 321° |
| 2026-05-06 16:58 | 27.97601 | -82.54068 | 36 ft | 14 kts | 1° |
| 2026-05-06 16:58 | 27.97739 | -82.54063 | 36 ft | 24 kts | 2° |
| 2026-05-06 16:58 | 27.97942 | -82.54056 | 38 ft | 34 kts | 1° |
| 2026-05-06 16:58 | 27.98203 | -82.54048 | 43 ft | 41 kts | 2° |
| 2026-05-06 16:59 | 27.98510 | -82.54038 | 48 ft | 48 kts | 0° |
| 2026-05-06 16:59 | 27.98866 | -82.54026 | 46 ft | 55 kts | 2° |
| 2026-05-06 16:59 | 27.99271 | -82.54009 | 42 ft | 46 kts | 2° |
| 2026-05-06 16:59 | 27.99345 | -82.54093 | 41 ft | 15 kts | 274° |
| 2026-05-06 17:00 | 27.99334 | -82.54135 | 41 ft | 2 kts | 211° |
| 2026-05-06 17:00 | 27.99322 | -82.54134 | 41 ft | 0 kts | 182° |
| 2026-05-06 17:00 | 27.99297 | -82.54135 | 41 ft | 18 kts | 182° |
| 2026-05-06 17:00 | 27.98982 | -82.54146 | 43 ft | 72 kts | 180° |
| 2026-05-06 17:01 | 27.98328 | -82.54168 | 48 ft | 118 kts | 181° |
| 2026-05-06 17:01 | 27.97364 | -82.54201 | 41 ft | 158 kts | 182° |
| 2026-05-06 17:01 | 27.96179 | -82.54243 | 273 ft | 174 kts | 182° |
| 2026-05-06 17:01 | 27.94857 | -82.54260 | 260 ft | 209 kts | 180° |
| 2026-05-06 17:02 | 27.93334 | -82.54252 | 571 ft | 229 kts | 180° |
| 2026-05-06 17:02 | 27.91654 | -82.54218 | 788 ft | 254 kts | 192° |
| 2026-05-06 17:02 | 27.89905 | -82.54741 | 1305 ft | 266 kts | 201° |
| 2026-05-06 17:02 | 27.88318 | -82.55831 | 2152 ft | 270 kts | 225° |
| 2026-05-06 17:03 | 27.87398 | -82.57683 | 2964 ft | 279 kts | 257° |
| 2026-05-06 17:03 | 27.87504 | -82.59891 | 3665 ft | 291 kts | 290° |
| 2026-05-06 17:03 | 27.88645 | -82.61743 | 4327 ft | 297 kts | 323° |
| 2026-05-06 17:03 | 27.90499 | -82.62641 | 5169 ft | 290 kts | 358° |
| 2026-05-06 17:04 | 27.92477 | -82.62399 | 5922 ft | 288 kts | 14° |
| 2026-05-06 17:04 | 27.94480 | -82.62050 | 6580 ft | 292 kts | 8° |
| 2026-05-06 17:04 | 27.96494 | -82.61708 | 7277 ft | 293 kts | 11° |
| 2026-05-06 17:04 | 27.98511 | -82.61331 | 7893 ft | 296 kts | 10° |
| 2026-05-06 17:05 | 28.00549 | -82.60959 | 8556 ft | 297 kts | 9° |
| 2026-05-06 17:05 | 28.02607 | -82.60586 | 9136 ft | 301 kts | 9° |
| 2026-05-06 17:05 | 28.04685 | -82.60216 | 9749 ft | 304 kts | 9° |
| 2026-05-06 17:05 | 28.06784 | -82.59846 | 10277 ft | 308 kts | 8° |
| 2026-05-06 17:06 | 28.08948 | -82.59470 | 10539 ft | 321 kts | 8° |
| 2026-05-06 17:06 | 28.11198 | -82.59083 | 10731 ft | 333 kts | 8° |
| 2026-05-06 17:06 | 28.13528 | -82.58676 | 10893 ft | 343 kts | 8° |
| 2026-05-06 17:06 | 28.15922 | -82.58257 | 11054 ft | 353 kts | 8° |
| 2026-05-06 17:07 | 28.18379 | -82.57831 | 11231 ft | 362 kts | 8° |
| 2026-05-06 17:07 | 28.20917 | -82.57611 | 11440 ft | 368 kts | 360° |
| 2026-05-06 17:07 | 28.23453 | -82.57656 | 11771 ft | 371 kts | 358° |
| 2026-05-06 17:07 | 28.26039 | -82.57742 | 12121 ft | 373 kts | 358° |
| 2026-05-06 17:08 | 28.28648 | -82.57826 | 12476 ft | 375 kts | 358° |
| 2026-05-06 17:08 | 28.31260 | -82.57905 | 12858 ft | 376 kts | 358° |
| 2026-05-06 17:08 | 28.33881 | -82.57985 | 13231 ft | 378 kts | 358° |
| 2026-05-06 17:08 | 28.36517 | -82.58066 | 13603 ft | 379 kts | 358° |
| 2026-05-06 17:09 | 28.39168 | -82.58142 | 13978 ft | 381 kts | 358° |
| 2026-05-06 17:09 | 28.41821 | -82.58208 | 14300 ft | 382 kts | 358° |
| 2026-05-06 17:09 | 28.44490 | -82.58274 | 14600 ft | 384 kts | 358° |
| 2026-05-06 17:09 | 28.47167 | -82.58343 | 14907 ft | 387 kts | 357° |
| 2026-05-06 17:10 | 28.49874 | -82.58411 | 15206 ft | 389 kts | 357° |
| 2026-05-06 17:10 | 28.52593 | -82.58478 | 15531 ft | 391 kts | 357° |
| 2026-05-06 17:10 | 28.55317 | -82.58545 | 15862 ft | 393 kts | 356° |
| 2026-05-06 17:10 | 28.58056 | -82.58616 | 16182 ft | 395 kts | 356° |
| 2026-05-06 17:11 | 28.60814 | -82.58686 | 16494 ft | 397 kts | 356° |
| 2026-05-06 17:11 | 28.63543 | -82.58755 | 16807 ft | 399 kts | 356° |
| 2026-05-06 17:11 | 28.66320 | -82.58840 | 17108 ft | 400 kts | 354° |
| 2026-05-06 17:11 | 28.69097 | -82.59124 | 17428 ft | 401 kts | 351° |
| 2026-05-06 17:12 | 28.71870 | -82.59507 | 17749 ft | 402 kts | 351° |
| 2026-05-06 17:12 | 28.74659 | -82.59900 | 18061 ft | 404 kts | 350° |
| 2026-05-06 17:12 | 28.77457 | -82.60293 | 18394 ft | 406 kts | 350° |
| 2026-05-06 17:12 | 28.80283 | -82.60689 | 18674 ft | 408 kts | 350° |
| 2026-05-06 17:13 | 28.83108 | -82.61084 | 18978 ft | 410 kts | 350° |
| 2026-05-06 17:13 | 28.85940 | -82.61480 | 19280 ft | 411 kts | 350° |
| 2026-05-06 17:13 | 28.88750 | -82.61873 | 19577 ft | 412 kts | 349° |
| 2026-05-06 17:13 | 28.91603 | -82.62272 | 19871 ft | 414 kts | 349° |
| 2026-05-06 17:14 | 28.94478 | -82.62674 | 20173 ft | 416 kts | 349° |
| 2026-05-06 17:14 | 28.97355 | -82.63077 | 20464 ft | 417 kts | 349° |
| 2026-05-06 17:14 | 29.00245 | -82.63482 | 20752 ft | 419 kts | 349° |
| 2026-05-06 17:14 | 29.03146 | -82.63888 | 21024 ft | 420 kts | 349° |
| 2026-05-06 17:15 | 29.06050 | -82.64295 | 21328 ft | 422 kts | 349° |
| 2026-05-06 17:15 | 29.08975 | -82.64705 | 21612 ft | 423 kts | 349° |
| 2026-05-06 17:15 | 29.11907 | -82.65117 | 21896 ft | 425 kts | 349° |
| 2026-05-06 17:15 | 29.14844 | -82.65529 | 22173 ft | 426 kts | 349° |
| 2026-05-06 17:16 | 29.17796 | -82.65945 | 22445 ft | 428 kts | 349° |
| 2026-05-06 17:16 | 29.20761 | -82.66361 | 22706 ft | 430 kts | 348° |
| 2026-05-06 17:16 | 29.23734 | -82.66779 | 22984 ft | 431 kts | 348° |
| 2026-05-06 17:16 | 29.26721 | -82.67199 | 23272 ft | 433 kts | 348° |
| 2026-05-06 17:17 | 29.29675 | -82.67615 | 23513 ft | 434 kts | 348° |
| 2026-05-06 17:17 | 29.32682 | -82.68039 | 23766 ft | 436 kts | 348° |
| 2026-05-06 17:17 | 29.35691 | -82.68462 | 24007 ft | 437 kts | 348° |
| 2026-05-06 17:17 | 29.38723 | -82.68890 | 24227 ft | 438 kts | 348° |
| 2026-05-06 17:18 | 29.41766 | -82.69246 | 24438 ft | 442 kts | 352° |
| 2026-05-06 17:18 | 29.44858 | -82.69314 | 24665 ft | 445 kts | 355° |
| 2026-05-06 17:18 | 29.47962 | -82.69297 | 24889 ft | 447 kts | 355° |
| 2026-05-06 17:18 | 29.51086 | -82.69273 | 25089 ft | 448 kts | 355° |
| 2026-05-06 17:19 | 29.54206 | -82.69250 | 25311 ft | 449 kts | 355° |
| 2026-05-06 17:19 | 29.57300 | -82.69229 | 25529 ft | 450 kts | 355° |
| 2026-05-06 17:19 | 29.60439 | -82.69208 | 25747 ft | 452 kts | 354° |
| 2026-05-06 17:19 | 29.63590 | -82.69188 | 25981 ft | 453 kts | 354° |
| 2026-05-06 17:20 | 29.66750 | -82.69167 | 26226 ft | 453 kts | 354° |
| 2026-05-06 17:20 | 29.69905 | -82.69148 | 26422 ft | 454 kts | 354° |
| 2026-05-06 17:20 | 29.73074 | -82.69128 | 26639 ft | 456 kts | 354° |
| 2026-05-06 17:20 | 29.76251 | -82.69108 | 26848 ft | 457 kts | 354° |
| 2026-05-06 17:21 | 29.79437 | -82.69088 | 27052 ft | 458 kts | 354° |
| 2026-05-06 17:21 | 29.82631 | -82.69068 | 27257 ft | 459 kts | 354° |
| 2026-05-06 17:21 | 29.85843 | -82.69048 | 27458 ft | 461 kts | 354° |
| 2026-05-06 17:21 | 29.89052 | -82.69028 | 27672 ft | 462 kts | 354° |
| 2026-05-06 17:22 | 29.92265 | -82.69008 | 27889 ft | 463 kts | 354° |
| 2026-05-06 17:22 | 29.95450 | -82.68988 | 28083 ft | 464 kts | 353° |
| 2026-05-06 17:22 | 29.98690 | -82.68967 | 28278 ft | 465 kts | 353° |
| 2026-05-06 17:22 | 30.01929 | -82.68950 | 28470 ft | 466 kts | 353° |
| 2026-05-06 17:23 | 30.05180 | -82.68933 | 28641 ft | 467 kts | 353° |
| 2026-05-06 17:23 | 30.08432 | -82.68910 | 28817 ft | 468 kts | 353° |
| 2026-05-06 17:23 | 30.11704 | -82.68888 | 28995 ft | 469 kts | 353° |
| 2026-05-06 17:24 | 30.17155 | -82.68854 | 29107 ft | 475 kts | 353° |
| 2026-05-06 17:24 | 30.23823 | -82.68814 | 29143 ft | 481 kts | 353° |
| 2026-05-06 17:25 | 30.31587 | -82.68761 | 29161 ft | 478 kts | 353° |
| 2026-05-06 17:25 | 30.37161 | -82.68726 | 29162 ft | 478 kts | 353° |
| 2026-05-06 17:26 | 30.43830 | -82.68447 | 29172 ft | 486 kts | 1° |
| 2026-05-06 17:26 | 30.47161 | -82.67536 | 29173 ft | 497 kts | 12° |
| 2026-05-06 17:26 | 30.50354 | -82.65886 | 29174 ft | 509 kts | 23° |
| 2026-05-06 17:26 | 30.53281 | -82.63505 | 29165 ft | 521 kts | 34° |
| 2026-05-06 17:27 | 30.55788 | -82.60474 | 29171 ft | 533 kts | 46° |
| 2026-05-06 17:27 | 30.60188 | -82.53479 | 29178 ft | 539 kts | 49° |
| 2026-05-06 17:28 | 30.64422 | -82.46291 | 29181 ft | 540 kts | 50° |
| 2026-05-06 17:28 | 30.68667 | -82.39105 | 29195 ft | 539 kts | 49° |
| 2026-05-06 17:29 | 30.72935 | -82.31948 | 29206 ft | 537 kts | 49° |
| 2026-05-06 17:29 | 30.77200 | -82.24819 | 29184 ft | 537 kts | 49° |
| 2026-05-06 17:30 | 30.81472 | -82.17670 | 29181 ft | 538 kts | 49° |
| 2026-05-06 17:30 | 30.85708 | -82.10562 | 29170 ft | 538 kts | 49° |
| 2026-05-06 17:31 | 30.89961 | -82.03409 | 29153 ft | 538 kts | 49° |
| 2026-05-06 17:31 | 30.94215 | -81.96240 | 29113 ft | 538 kts | 49° |
| 2026-05-06 17:32 | 30.98461 | -81.89071 | 29082 ft | 538 kts | 49° |
| 2026-05-06 17:32 | 31.02718 | -81.81872 | 29073 ft | 538 kts | 49° |
| 2026-05-06 17:33 | 31.06962 | -81.74682 | 29076 ft | 538 kts | 49° |
| 2026-05-06 17:33 | 31.11180 | -81.67523 | 29071 ft | 538 kts | 49° |
| 2026-05-06 17:34 | 31.15420 | -81.60311 | 29088 ft | 537 kts | 49° |
| 2026-05-06 17:34 | 31.19630 | -81.53135 | 29104 ft | 535 kts | 49° |
| 2026-05-06 17:35 | 31.24038 | -81.46193 | 29134 ft | 526 kts | 39° |
| 2026-05-06 17:35 | 31.26738 | -81.43368 | 29099 ft | 513 kts | 28° |
| 2026-05-06 17:35 | 31.29737 | -81.41207 | 29104 ft | 502 kts | 19° |
| 2026-05-06 17:36 | 31.39157 | -81.35933 | 29096 ft | 499 kts | 16° |
| 2026-05-06 17:36 | 31.45449 | -81.32586 | 29095 ft | 499 kts | 17° |
| 2026-05-06 17:37 | 31.51764 | -81.29184 | 29100 ft | 500 kts | 16° |
| 2026-05-06 17:37 | 31.58066 | -81.25756 | 29086 ft | 499 kts | 17° |
| 2026-05-06 17:38 | 31.64361 | -81.22319 | 29083 ft | 498 kts | 17° |
| 2026-05-06 17:38 | 31.70670 | -81.18880 | 29072 ft | 498 kts | 17° |
| 2026-05-06 17:39 | 31.76925 | -81.15461 | 29096 ft | 499 kts | 17° |
| 2026-05-06 17:39 | 31.83223 | -81.12004 | 29066 ft | 500 kts | 17° |
| 2026-05-06 17:40 | 31.89541 | -81.08534 | 29064 ft | 501 kts | 17° |
| 2026-05-06 17:40 | 31.95857 | -81.05061 | 29064 ft | 501 kts | 17° |
| 2026-05-06 17:41 | 32.02183 | -81.01582 | 29064 ft | 501 kts | 17° |
| 2026-05-06 17:41 | 32.08495 | -80.98039 | 29064 ft | 504 kts | 19° |
| 2026-05-06 17:42 | 32.14797 | -80.94497 | 29067 ft | 505 kts | 19° |
| 2026-05-06 17:42 | 32.21143 | -80.90940 | 29105 ft | 504 kts | 19° |
| 2026-05-06 17:43 | 32.27488 | -80.87382 | 29109 ft | 505 kts | 19° |
| 2026-05-06 17:43 | 32.33844 | -80.83807 | 29113 ft | 505 kts | 19° |
| 2026-05-06 17:44 | 32.40150 | -80.80254 | 29103 ft | 505 kts | 19° |
| 2026-05-06 17:44 | 32.46501 | -80.76671 | 29100 ft | 505 kts | 19° |
| 2026-05-06 17:45 | 32.52836 | -80.73090 | 29103 ft | 505 kts | 19° |
| 2026-05-06 17:45 | 32.59184 | -80.69498 | 29101 ft | 505 kts | 19° |
| 2026-05-06 17:46 | 32.65535 | -80.65898 | 29093 ft | 505 kts | 19° |
| 2026-05-06 17:46 | 32.71875 | -80.62299 | 29078 ft | 505 kts | 19° |
| 2026-05-06 17:47 | 32.78150 | -80.58629 | 29072 ft | 506 kts | 20° |
| 2026-05-06 17:47 | 32.84480 | -80.54828 | 29068 ft | 506 kts | 20° |
| 2026-05-06 17:48 | 32.90739 | -80.51079 | 29062 ft | 507 kts | 21° |
| 2026-05-06 17:48 | 32.97051 | -80.47311 | 29070 ft | 507 kts | 21° |
| 2026-05-06 17:49 | 33.03371 | -80.43539 | 29072 ft | 507 kts | 21° |
| 2026-05-06 17:49 | 33.09680 | -80.39768 | 29075 ft | 507 kts | 21° |
| 2026-05-06 17:50 | 33.15989 | -80.35991 | 29072 ft | 507 kts | 21° |
| 2026-05-06 17:50 | 33.22300 | -80.32205 | 29073 ft | 507 kts | 21° |
| 2026-05-06 17:51 | 33.28601 | -80.28420 | 29068 ft | 507 kts | 21° |
| 2026-05-06 17:51 | 33.34910 | -80.24624 | 29071 ft | 508 kts | 21° |
| 2026-05-06 17:52 | 33.41224 | -80.20819 | 29080 ft | 509 kts | 21° |
| 2026-05-06 17:52 | 33.47504 | -80.17028 | 29079 ft | 508 kts | 21° |
| 2026-05-06 17:53 | 33.53827 | -80.13206 | 29081 ft | 510 kts | 21° |
| 2026-05-06 17:53 | 33.60167 | -80.09366 | 29084 ft | 511 kts | 22° |
| 2026-05-06 17:54 | 33.66529 | -80.05511 | 29075 ft | 512 kts | 22° |
| 2026-05-06 17:54 | 33.72897 | -80.01644 | 29078 ft | 512 kts | 22° |
| 2026-05-06 17:55 | 33.79249 | -79.97773 | 29054 ft | 512 kts | 22° |
| 2026-05-06 17:55 | 33.85616 | -79.93890 | 29050 ft | 513 kts | 22° |
| 2026-05-06 17:56 | 33.91951 | -79.90022 | 29057 ft | 514 kts | 22° |
| 2026-05-06 17:56 | 33.98323 | -79.86125 | 29059 ft | 514 kts | 22° |
| 2026-05-06 17:57 | 34.04695 | -79.82221 | 29065 ft | 514 kts | 22° |
| 2026-05-06 17:57 | 34.11079 | -79.78305 | 29075 ft | 515 kts | 22° |
| 2026-05-06 17:58 | 34.17473 | -79.74376 | 29129 ft | 518 kts | 22° |
| 2026-05-06 17:58 | 34.23940 | -79.70391 | 29365 ft | 522 kts | 22° |
| 2026-05-06 17:59 | 34.30439 | -79.66383 | 29559 ft | 525 kts | 22° |
| 2026-05-06 17:59 | 34.36912 | -79.62385 | 29564 ft | 527 kts | 22° |
| 2026-05-06 18:00 | 34.43442 | -79.58355 | 29563 ft | 527 kts | 22° |
| 2026-05-06 18:00 | 34.49964 | -79.54304 | 29558 ft | 527 kts | 22° |
| 2026-05-06 18:01 | 34.56495 | -79.50238 | 29584 ft | 530 kts | 22° |
| 2026-05-06 18:01 | 34.62990 | -79.45937 | 29592 ft | 533 kts | 25° |
| 2026-05-06 18:02 | 34.69448 | -79.41506 | 29603 ft | 530 kts | 25° |
| 2026-05-06 18:02 | 34.75869 | -79.37125 | 29640 ft | 529 kts | 25° |
| 2026-05-06 18:03 | 34.82317 | -79.32773 | 29691 ft | 532 kts | 24° |
| 2026-05-06 18:03 | 34.88808 | -79.28447 | 29720 ft | 531 kts | 24° |
| 2026-05-06 18:04 | 34.95319 | -79.24165 | 29745 ft | 531 kts | 23° |
| 2026-05-06 18:04 | 35.01845 | -79.19933 | 29757 ft | 531 kts | 23° |
| 2026-05-06 18:05 | 35.08371 | -79.15770 | 29817 ft | 533 kts | 22° |
| 2026-05-06 18:05 | 35.14963 | -79.11636 | 29870 ft | 532 kts | 21° |
| 2026-05-06 18:06 | 35.21578 | -79.07561 | 29938 ft | 532 kts | 21° |
| 2026-05-06 18:06 | 35.28214 | -79.03553 | 30013 ft | 529 kts | 21° |
| 2026-05-06 18:07 | 35.34852 | -78.99626 | 30063 ft | 529 kts | 20° |
| 2026-05-06 18:07 | 35.41507 | -78.95767 | 30126 ft | 529 kts | 20° |
| 2026-05-06 18:08 | 35.48179 | -78.91983 | 30182 ft | 528 kts | 19° |
| 2026-05-06 18:08 | 35.54870 | -78.88281 | 30235 ft | 527 kts | 19° |
| 2026-05-06 18:09 | 35.61546 | -78.84684 | 30284 ft | 527 kts | 18° |
| 2026-05-06 18:09 | 35.68294 | -78.81153 | 30338 ft | 526 kts | 17° |
| 2026-05-06 18:10 | 35.75056 | -78.77725 | 30420 ft | 528 kts | 16° |
| 2026-05-06 18:10 | 35.81894 | -78.74382 | 30494 ft | 528 kts | 15° |
| 2026-05-06 18:11 | 35.87591 | -78.71690 | 30542 ft | 527 kts | 14° |
| 2026-05-06 18:11 | 35.95630 | -78.68044 | 30634 ft | 525 kts | 13° |
| 2026-05-06 18:12 | 36.01368 | -78.65558 | 30710 ft | 525 kts | 13° |
| 2026-05-06 18:12 | 36.09420 | -78.62239 | 30806 ft | 524 kts | 11° |
| 2026-05-06 18:13 | 36.15207 | -78.59981 | 30865 ft | 523 kts | 11° |
| 2026-05-06 18:13 | 36.22175 | -78.57411 | 30977 ft | 521 kts | 9° |
| 2026-05-06 18:14 | 36.29160 | -78.55007 | 31057 ft | 520 kts | 8° |
| 2026-05-06 18:14 | 36.36155 | -78.52781 | 31137 ft | 518 kts | 7° |
| 2026-05-06 18:15 | 36.43161 | -78.50745 | 31224 ft | 516 kts | 5° |
| 2026-05-06 18:15 | 36.50193 | -78.48909 | 31319 ft | 516 kts | 4° |
| 2026-05-06 18:16 | 36.57233 | -78.47286 | 31381 ft | 513 kts | 2° |
| 2026-05-06 18:16 | 36.64274 | -78.45892 | 31476 ft | 511 kts | 1° |
| 2026-05-06 18:17 | 36.71331 | -78.44770 | 31609 ft | 509 kts | 358° |
| 2026-05-06 18:17 | 36.78389 | -78.43984 | 31728 ft | 508 kts | 355° |
| 2026-05-06 18:18 | 36.85360 | -78.43876 | 31861 ft | 500 kts | 350° |
| 2026-05-06 18:18 | 36.92251 | -78.44523 | 32018 ft | 493 kts | 344° |
| 2026-05-06 18:19 | 36.98971 | -78.45975 | 32138 ft | 485 kts | 338° |
| 2026-05-06 18:19 | 37.05400 | -78.48250 | 32289 ft | 476 kts | 332° |
| 2026-05-06 18:20 | 37.11455 | -78.51363 | 32402 ft | 466 kts | 326° |
| 2026-05-06 18:20 | 37.17039 | -78.55319 | 32580 ft | 457 kts | 318° |
| 2026-05-06 18:21 | 37.22011 | -78.60070 | 32735 ft | 448 kts | 310° |
| 2026-05-06 18:21 | 37.26300 | -78.65617 | 32888 ft | 438 kts | 302° |
| 2026-05-06 18:22 | 37.29737 | -78.71845 | 33039 ft | 430 kts | 294° |
| 2026-05-06 18:22 | 37.32186 | -78.78620 | 33194 ft | 423 kts | 284° |
| 2026-05-06 18:23 | 37.33512 | -78.85753 | 33368 ft | 417 kts | 275° |
| 2026-05-06 18:23 | 37.33598 | -78.93007 | 33532 ft | 415 kts | 264° |
| 2026-05-06 18:24 | 37.32370 | -79.00042 | 33709 ft | 417 kts | 253° |
| 2026-05-06 18:24 | 37.29774 | -79.06583 | 33883 ft | 423 kts | 240° |
| 2026-05-06 18:25 | 37.25841 | -79.12167 | 34019 ft | 434 kts | 227° |
| 2026-05-06 18:25 | 37.20688 | -79.16341 | 34144 ft | 451 kts | 213° |
| 2026-05-06 18:26 | 37.17722 | -79.17758 | 34220 ft | 462 kts | 206° |
| 2026-05-06 18:26 | 37.14554 | -79.18654 | 34295 ft | 473 kts | 198° |
| 2026-05-06 18:26 | 37.11217 | -79.18978 | 34381 ft | 486 kts | 189° |
| 2026-05-06 18:26 | 37.07802 | -79.18683 | 34464 ft | 499 kts | 181° |
| 2026-05-06 18:27 | 37.04407 | -79.17752 | 34544 ft | 512 kts | 172° |
| 2026-05-06 18:27 | 37.01043 | -79.16146 | 34631 ft | 525 kts | 163° |
| 2026-05-06 18:27 | 36.97820 | -79.13850 | 34721 ft | 537 kts | 153° |
| 2026-05-06 18:27 | 36.94874 | -79.10910 | 34784 ft | 549 kts | 143° |
| 2026-05-06 18:28 | 36.92276 | -79.07332 | 34870 ft | 559 kts | 132° |
| 2026-05-06 18:28 | 36.90148 | -79.03232 | 34966 ft | 566 kts | 121° |
| 2026-05-06 18:28 | 36.88517 | -78.98744 | 35086 ft | 569 kts | 112° |
| 2026-05-06 18:28 | 36.87419 | -78.93996 | 35207 ft | 570 kts | 102° |
| 2026-05-06 18:29 | 36.86914 | -78.89094 | 35329 ft | 569 kts | 91° |
| 2026-05-06 18:29 | 36.87039 | -78.84238 | 35458 ft | 564 kts | 79° |
| 2026-05-06 18:29 | 36.87821 | -78.79478 | 35582 ft | 555 kts | 67° |
| 2026-05-06 18:29 | 36.89257 | -78.75064 | 35718 ft | 542 kts | 53° |
| 2026-05-06 18:30 | 36.91302 | -78.71207 | 35853 ft | 523 kts | 39° |
| 2026-05-06 18:30 | 36.93862 | -78.68116 | 36019 ft | 499 kts | 24° |
| 2026-05-06 18:30 | 36.96768 | -78.66005 | 36149 ft | 470 kts | 8° |
| 2026-05-06 18:30 | 36.99812 | -78.65017 | 36276 ft | 436 kts | 351° |
| 2026-05-06 18:31 | 37.02707 | -78.65239 | 36432 ft | 400 kts | 332° |
| 2026-05-06 18:31 | 37.05102 | -78.66627 | 36558 ft | 366 kts | 311° |
| 2026-05-06 18:31 | 37.06644 | -78.68968 | 36728 ft | 340 kts | 288° |
| 2026-05-06 18:31 | 37.07004 | -78.71806 | 36885 ft | 333 kts | 263° |
| 2026-05-06 18:32 | 37.06090 | -78.74495 | 37026 ft | 350 kts | 238° |
| 2026-05-06 18:32 | 37.04077 | -78.76378 | 37145 ft | 384 kts | 213° |
| 2026-05-06 18:32 | 37.01324 | -78.76957 | 37242 ft | 424 kts | 187° |
| 2026-05-06 18:32 | 36.98365 | -78.75961 | 37322 ft | 460 kts | 161° |
| 2026-05-06 18:33 | 36.95781 | -78.73450 | 37372 ft | 486 kts | 134° |
| 2026-05-06 18:33 | 36.94059 | -78.69824 | 37287 ft | 499 kts | 108° |
| 2026-05-06 18:33 | 36.93494 | -78.65550 | 36926 ft | 499 kts | 78° |
| 2026-05-06 18:33 | 36.94215 | -78.61407 | 36893 ft | 474 kts | 54° |
| 2026-05-06 18:34 | 36.95946 | -78.58141 | 36949 ft | 433 kts | 27° |
| 2026-05-06 18:34 | 36.98332 | -78.56179 | 36533 ft | 394 kts | 1° |
| 2026-05-06 18:34 | 37.00900 | -78.55817 | 35914 ft | 356 kts | 332° |
| 2026-05-06 18:34 | 37.02975 | -78.57073 | 35559 ft | 318 kts | 302° |
| 2026-05-06 18:35 | 37.03919 | -78.59395 | 35490 ft | 296 kts | 272° |
| 2026-05-06 18:35 | 37.03492 | -78.61893 | 35423 ft | 308 kts | 243° |
| 2026-05-06 18:35 | 37.01817 | -78.63759 | 35147 ft | 349 kts | 213° |
| 2026-05-06 18:35 | 36.99297 | -78.64304 | 34805 ft | 400 kts | 183° |
| 2026-05-06 18:36 | 36.96547 | -78.63111 | 34665 ft | 441 kts | 152° |
| 2026-05-06 18:36 | 36.94362 | -78.60314 | 34684 ft | 464 kts | 123° |
| 2026-05-06 18:36 | 36.93251 | -78.56505 | 34580 ft | 473 kts | 94° |
| 2026-05-06 18:36 | 36.93452 | -78.52448 | 34344 ft | 468 kts | 65° |
| 2026-05-06 18:37 | 36.94930 | -78.48961 | 34164 ft | 444 kts | 35° |
| 2026-05-06 18:37 | 36.97296 | -78.46790 | 34086 ft | 403 kts | 5° |
| 2026-05-06 18:37 | 36.99894 | -78.46302 | 33970 ft | 358 kts | 336° |
| 2026-05-06 18:37 | 37.02045 | -78.47414 | 33708 ft | 323 kts | 306° |
| 2026-05-06 18:38 | 37.03169 | -78.49683 | 33380 ft | 305 kts | 275° |
| 2026-05-06 18:38 | 37.02909 | -78.52249 | 33188 ft | 313 kts | 244° |
| 2026-05-06 18:38 | 37.01323 | -78.54200 | 33141 ft | 341 kts | 213° |
| 2026-05-06 18:38 | 36.98881 | -78.54758 | 33068 ft | 382 kts | 182° |
| 2026-05-06 18:39 | 36.96260 | -78.53594 | 32924 ft | 423 kts | 152° |
| 2026-05-06 18:39 | 36.94197 | -78.50840 | 32778 ft | 451 kts | 121° |
| 2026-05-06 18:39 | 36.93259 | -78.47061 | 32729 ft | 461 kts | 91° |
| 2026-05-06 18:40 | 36.95351 | -78.39930 | 32532 ft | 432 kts | 31° |
| 2026-05-06 18:40 | 36.97811 | -78.38100 | 32347 ft | 398 kts | 0° |
| 2026-05-06 18:40 | 37.00409 | -78.37998 | 32197 ft | 357 kts | 329° |
| 2026-05-06 18:40 | 37.02391 | -78.39478 | 32080 ft | 320 kts | 298° |
| 2026-05-06 18:41 | 37.03195 | -78.41918 | 31943 ft | 303 kts | 267° |
| 2026-05-06 18:41 | 37.02579 | -78.44426 | 31797 ft | 314 kts | 235° |
| 2026-05-06 18:41 | 37.00727 | -78.46028 | 31690 ft | 347 kts | 203° |
| 2026-05-06 18:41 | 36.98208 | -78.46048 | 31650 ft | 387 kts | 171° |
| 2026-05-06 18:42 | 36.95788 | -78.44309 | 31603 ft | 422 kts | 140° |
| 2026-05-06 18:42 | 36.94183 | -78.41197 | 31524 ft | 446 kts | 110° |
| 2026-05-06 18:42 | 36.93815 | -78.37286 | 31442 ft | 454 kts | 78° |
| 2026-05-06 18:42 | 36.94817 | -78.33663 | 31372 ft | 443 kts | 48° |
| 2026-05-06 18:43 | 36.96924 | -78.31038 | 31313 ft | 417 kts | 17° |
| 2026-05-06 18:43 | 36.99548 | -78.30015 | 31214 ft | 380 kts | 346° |
| 2026-05-06 18:43 | 37.01961 | -78.30715 | 31078 ft | 342 kts | 315° |
| 2026-05-06 18:43 | 37.03469 | -78.32779 | 30967 ft | 312 kts | 283° |
| 2026-05-06 18:44 | 37.03607 | -78.35385 | 30885 ft | 305 kts | 250° |
| 2026-05-06 18:44 | 37.02349 | -78.37536 | 30811 ft | 324 kts | 218° |
| 2026-05-06 18:44 | 37.00111 | -78.38378 | 30742 ft | 360 kts | 186° |
| 2026-05-06 18:44 | 36.97600 | -78.37472 | 30719 ft | 399 kts | 154° |
| 2026-05-06 18:45 | 36.95590 | -78.34922 | 30678 ft | 430 kts | 123° |
| 2026-05-06 18:45 | 36.94681 | -78.31312 | 30624 ft | 447 kts | 92° |
| 2026-05-06 18:45 | 36.95147 | -78.27492 | 30579 ft | 447 kts | 61° |
| 2026-05-06 18:45 | 36.96178 | -78.25298 | 30556 ft | 436 kts | 40° |
| 2026-05-06 18:46 | 36.99400 | -78.22704 | 30498 ft | 397 kts | 359° |
| 2026-05-06 18:46 | 37.01967 | -78.22756 | 30406 ft | 359 kts | 327° |
| 2026-05-06 18:46 | 37.03916 | -78.24362 | 30309 ft | 324 kts | 295° |
| 2026-05-06 18:46 | 37.04633 | -78.26880 | 30239 ft | 304 kts | 263° |
| 2026-05-06 18:47 | 37.03907 | -78.29324 | 30189 ft | 311 kts | 230° |
| 2026-05-06 18:47 | 37.02004 | -78.30739 | 30159 ft | 340 kts | 198° |
| 2026-05-06 18:47 | 36.99531 | -78.30508 | 30136 ft | 379 kts | 166° |
| 2026-05-06 18:47 | 36.97297 | -78.28526 | 30097 ft | 415 kts | 134° |
| 2026-05-06 18:48 | 36.95986 | -78.25228 | 30082 ft | 439 kts | 103° |
| 2026-05-06 18:48 | 36.96001 | -78.21403 | 30057 ft | 446 kts | 71° |
| 2026-05-06 18:48 | 36.97362 | -78.17996 | 30018 ft | 435 kts | 40° |
| 2026-05-06 18:48 | 36.99671 | -78.15839 | 29984 ft | 410 kts | 9° |
| 2026-05-06 18:49 | 37.02337 | -78.15346 | 29938 ft | 372 kts | 337° |
| 2026-05-06 18:49 | 37.04570 | -78.16527 | 29902 ft | 334 kts | 305° |
| 2026-05-06 18:49 | 37.05725 | -78.18842 | 29858 ft | 306 kts | 274° |
| 2026-05-06 18:49 | 37.05492 | -78.21405 | 29821 ft | 303 kts | 242° |
| 2026-05-06 18:50 | 37.03969 | -78.23279 | 29767 ft | 326 kts | 210° |
| 2026-05-06 18:50 | 37.01636 | -78.23707 | 29713 ft | 363 kts | 178° |
| 2026-05-06 18:50 | 36.99228 | -78.22364 | 29687 ft | 402 kts | 146° |
| 2026-05-06 18:50 | 36.97514 | -78.19479 | 29656 ft | 431 kts | 114° |
| 2026-05-06 18:51 | 36.97042 | -78.15734 | 29611 ft | 445 kts | 82° |
| 2026-05-06 18:51 | 36.97985 | -78.12091 | 29551 ft | 440 kts | 50° |
| 2026-05-06 18:51 | 37.00083 | -78.09480 | 29535 ft | 417 kts | 18° |
| 2026-05-06 18:51 | 37.02720 | -78.08504 | 29554 ft | 380 kts | 346° |
| 2026-05-06 18:52 | 37.05119 | -78.09258 | 29549 ft | 340 kts | 314° |
| 2026-05-06 18:52 | 37.06590 | -78.11300 | 29510 ft | 310 kts | 283° |
| 2026-05-06 18:52 | 37.06742 | -78.13880 | 29456 ft | 301 kts | 251° |
| 2026-05-06 18:52 | 37.05531 | -78.16017 | 29451 ft | 317 kts | 219° |
| 2026-05-06 18:53 | 37.03352 | -78.16869 | 29455 ft | 351 kts | 187° |
| 2026-05-06 18:53 | 37.00896 | -78.15992 | 29413 ft | 391 kts | 155° |
| 2026-05-06 18:53 | 36.98935 | -78.13461 | 29340 ft | 425 kts | 122° |
| 2026-05-06 18:53 | 36.98107 | -78.09848 | 29326 ft | 443 kts | 90° |
| 2026-05-06 18:54 | 36.98703 | -78.06096 | 29347 ft | 441 kts | 58° |
| 2026-05-06 18:54 | 37.00522 | -78.03190 | 29357 ft | 422 kts | 26° |
| 2026-05-06 18:54 | 37.03076 | -78.01751 | 29325 ft | 390 kts | 354° |
| 2026-05-06 18:54 | 37.05636 | -78.02084 | 29305 ft | 350 kts | 322° |
| 2026-05-06 18:55 | 37.07371 | -78.03866 | 29313 ft | 315 kts | 290° |
| 2026-05-06 18:55 | 37.07856 | -78.06397 | 29329 ft | 298 kts | 258° |
| 2026-05-06 18:55 | 37.06955 | -78.08710 | 29280 ft | 309 kts | 226° |
| 2026-05-06 18:55 | 37.04951 | -78.09932 | 29234 ft | 343 kts | 194° |
| 2026-05-06 18:56 | 37.02488 | -78.09478 | 29213 ft | 383 kts | 162° |
| 2026-05-06 18:56 | 37.00345 | -78.07286 | 29232 ft | 418 kts | 130° |
| 2026-05-06 18:56 | 36.99222 | -78.03865 | 29236 ft | 439 kts | 98° |
| 2026-05-06 18:56 | 36.99474 | -78.00066 | 29208 ft | 443 kts | 65° |
| 2026-05-06 18:57 | 37.01061 | -77.96856 | 29162 ft | 428 kts | 33° |
| 2026-05-06 18:57 | 37.03489 | -77.95066 | 29180 ft | 397 kts | 1° |
| 2026-05-06 18:57 | 37.06110 | -77.94888 | 29446 ft | 363 kts | 342° |
| 2026-05-06 18:57 | 37.08483 | -77.95370 | 30319 ft | 329 kts | 336° |
| 2026-05-06 18:58 | 37.10772 | -77.95485 | 30766 ft | 339 kts | 356° |
| 2026-05-06 18:58 | 37.13163 | -77.94700 | 30299 ft | 375 kts | 12° |
| 2026-05-06 18:58 | 37.15617 | -77.93144 | 29476 ft | 414 kts | 25° |
| 2026-05-06 18:59 | 37.20071 | -77.88566 | 30529 ft | 394 kts | 39° |
| 2026-05-06 18:59 | 37.21880 | -77.86118 | 31224 ft | 375 kts | 41° |
| 2026-05-06 18:59 | 37.23009 | -77.84484 | 31272 ft | 376 kts | 42° |
| 2026-05-06 18:59 | 37.25354 | -77.81078 | 30459 ft | 405 kts | 42° |
| 2026-05-06 19:00 | 37.26668 | -77.79277 | 29963 ft | 423 kts | 40° |
| 2026-05-06 19:00 | 37.31651 | -77.73591 | 30824 ft | 388 kts | 27° |
| 2026-05-06 19:00 | 37.33115 | -77.72325 | 31222 ft | 371 kts | 20° |
| 2026-05-06 19:01 | 37.36106 | -77.70428 | 31056 ft | 365 kts | 7° |
| 2026-05-06 19:01 | 37.37765 | -77.69790 | 30577 ft | 373 kts | 360° |
| 2026-05-06 19:01 | 37.40341 | -77.69387 | 29854 ft | 382 kts | 347° |
| 2026-05-06 19:01 | 37.42911 | -77.69767 | 29952 ft | 358 kts | 331° |
| 2026-05-06 19:02 | 37.45061 | -77.70898 | 30647 ft | 314 kts | 313° |
| 2026-05-06 19:02 | 37.46577 | -77.72639 | 30974 ft | 283 kts | 293° |
| 2026-05-06 19:02 | 37.47299 | -77.74876 | 30574 ft | 280 kts | 270° |
| 2026-05-06 19:02 | 37.46994 | -77.77352 | 29702 ft | 304 kts | 243° |
| 2026-05-06 19:03 | 37.45451 | -77.79279 | 29508 ft | 329 kts | 210° |
| 2026-05-06 19:03 | 37.43150 | -77.79671 | 30106 ft | 349 kts | 179° |
| 2026-05-06 19:03 | 37.40851 | -77.78437 | 30354 ft | 380 kts | 151° |
| 2026-05-06 19:03 | 37.39032 | -77.75816 | 29942 ft | 424 kts | 123° |
| 2026-05-06 19:04 | 37.38234 | -77.72109 | 29549 ft | 454 kts | 90° |
| 2026-05-06 19:04 | 37.38877 | -77.68267 | 29855 ft | 446 kts | 58° |
| 2026-05-06 19:04 | 37.40697 | -77.65273 | 30169 ft | 422 kts | 29° |
| 2026-05-06 19:04 | 37.43200 | -77.63603 | 29996 ft | 399 kts | 0° |
| 2026-05-06 19:05 | 37.45823 | -77.63558 | 29618 ft | 370 kts | 329° |
| 2026-05-06 19:05 | 37.47879 | -77.65104 | 29702 ft | 326 kts | 297° |
| 2026-05-06 19:05 | 37.48726 | -77.67522 | 30022 ft | 292 kts | 267° |
| 2026-05-06 19:05 | 37.48260 | -77.69943 | 30004 ft | 293 kts | 237° |
| 2026-05-06 19:06 | 37.46616 | -77.71599 | 29668 ft | 326 kts | 206° |
| 2026-05-06 19:06 | 37.44243 | -77.71756 | 29559 ft | 368 kts | 173° |
| 2026-05-06 19:06 | 37.41927 | -77.70117 | 29779 ft | 401 kts | 142° |
| 2026-05-06 19:06 | 37.40406 | -77.67072 | 29914 ft | 427 kts | 111° |
| 2026-05-06 19:07 | 37.40081 | -77.63293 | 29726 ft | 446 kts | 81° |
| 2026-05-06 19:07 | 37.41106 | -77.59672 | 29567 ft | 446 kts | 49° |
| 2026-05-06 19:07 | 37.43301 | -77.57053 | 29725 ft | 417 kts | 16° |
| 2026-05-06 19:07 | 37.45896 | -77.56125 | 29988 ft | 376 kts | 346° |
| 2026-05-06 19:08 | 37.48301 | -77.56801 | 29865 ft | 341 kts | 316° |
| 2026-05-06 19:08 | 37.49879 | -77.58813 | 29570 ft | 315 kts | 284° |
| 2026-05-06 19:08 | 37.50117 | -77.61420 | 29621 ft | 299 kts | 251° |
| 2026-05-06 19:08 | 37.48990 | -77.63563 | 29858 ft | 305 kts | 220° |
| 2026-05-06 19:09 | 37.46929 | -77.64473 | 29868 ft | 337 kts | 189° |
| 2026-05-06 19:09 | 37.44513 | -77.63742 | 29616 ft | 385 kts | 158° |
| 2026-05-06 19:09 | 37.42498 | -77.61308 | 29494 ft | 424 kts | 125° |
| 2026-05-06 19:09 | 37.41595 | -77.57715 | 29637 ft | 441 kts | 92° |
| 2026-05-06 19:10 | 37.42064 | -77.53989 | 29767 ft | 439 kts | 62° |
| 2026-05-06 19:10 | 37.43769 | -77.50893 | 29649 ft | 427 kts | 31° |
| 2026-05-06 19:10 | 37.46293 | -77.49193 | 29515 ft | 400 kts | 359° |
| 2026-05-06 19:10 | 37.48897 | -77.49272 | 29570 ft | 357 kts | 327° |
| 2026-05-06 19:11 | 37.50815 | -77.50878 | 29688 ft | 317 kts | 295° |
| 2026-05-06 19:11 | 37.51553 | -77.53341 | 29633 ft | 298 kts | 264° |
| 2026-05-06 19:11 | 37.50908 | -77.55786 | 29502 ft | 306 kts | 232° |
| 2026-05-06 19:11 | 37.49068 | -77.57266 | 29450 ft | 335 kts | 200° |
| 2026-05-06 19:12 | 37.46645 | -77.57103 | 29535 ft | 372 kts | 167° |
| 2026-05-06 19:12 | 37.44426 | -77.55194 | 29547 ft | 408 kts | 136° |
| 2026-05-06 19:12 | 37.43103 | -77.51983 | 29487 ft | 435 kts | 104° |
| 2026-05-06 19:12 | 37.43094 | -77.48101 | 29423 ft | 445 kts | 71° |
| 2026-05-06 19:13 | 37.44441 | -77.44744 | 29466 ft | 433 kts | 40° |
| 2026-05-06 19:13 | 37.46783 | -77.42587 | 29492 ft | 405 kts | 8° |
| 2026-05-06 19:13 | 37.49429 | -77.42137 | 29455 ft | 368 kts | 336° |
| 2026-05-06 19:13 | 37.51619 | -77.43348 | 29412 ft | 330 kts | 304° |
| 2026-05-06 19:14 | 37.52701 | -77.45669 | 29480 ft | 299 kts | 271° |
| 2026-05-06 19:14 | 37.52367 | -77.48141 | 29640 ft | 292 kts | 239° |
| 2026-05-06 19:14 | 37.50925 | -77.49989 | 29716 ft | 301 kts | 221° |
| 2026-05-06 19:14 | 37.49111 | -77.51281 | 30209 ft | 299 kts | 210° |
| 2026-05-06 19:15 | 37.47056 | -77.51835 | 30581 ft | 311 kts | 191° |
| 2026-05-06 19:15 | 37.44820 | -77.51352 | 30309 ft | 351 kts | 167° |
| 2026-05-06 19:15 | 37.42644 | -77.49484 | 29312 ft | 415 kts | 137° |
| 2026-05-06 19:15 | 37.41264 | -77.46105 | 28818 ft | 453 kts | 101° |
| 2026-05-06 19:16 | 37.41401 | -77.42282 | 29523 ft | 437 kts | 68° |
| 2026-05-06 19:16 | 37.42815 | -77.39052 | 30044 ft | 414 kts | 39° |
| 2026-05-06 19:16 | 37.45069 | -77.36952 | 29669 ft | 401 kts | 10° |
| 2026-05-06 19:16 | 37.47739 | -77.36429 | 28983 ft | 381 kts | 337° |
| 2026-05-06 19:17 | 37.49971 | -77.37718 | 29168 ft | 332 kts | 303° |
| 2026-05-06 19:17 | 37.50991 | -77.40045 | 29777 ft | 291 kts | 271° |
| 2026-05-06 19:17 | 37.50712 | -77.42488 | 29795 ft | 289 kts | 242° |
| 2026-05-06 19:17 | 37.49221 | -77.44330 | 29246 ft | 326 kts | 210° |
| 2026-05-06 19:18 | 37.46859 | -77.44737 | 28999 ft | 370 kts | 176° |
| 2026-05-06 19:18 | 37.44480 | -77.43258 | 29369 ft | 399 kts | 143° |
| 2026-05-06 19:18 | 37.42892 | -77.40318 | 29646 ft | 421 kts | 113° |
| 2026-05-06 19:18 | 37.42480 | -77.36604 | 29415 ft | 441 kts | 82° |
| 2026-05-06 19:19 | 37.43454 | -77.32957 | 29132 ft | 443 kts | 49° |
| 2026-05-06 19:19 | 37.45606 | -77.30395 | 29279 ft | 413 kts | 16° |
| 2026-05-06 19:19 | 37.48218 | -77.29514 | 29540 ft | 372 kts | 345° |
| 2026-05-06 19:19 | 37.50550 | -77.30265 | 29476 ft | 337 kts | 314° |
| 2026-05-06 19:20 | 37.52025 | -77.32321 | 29250 ft | 308 kts | 281° |
| 2026-05-06 19:20 | 37.52124 | -77.34883 | 29275 ft | 295 kts | 248° |
| 2026-05-06 19:20 | 37.50862 | -77.36899 | 29418 ft | 307 kts | 216° |
| 2026-05-06 19:20 | 37.48706 | -77.37619 | 29260 ft | 347 kts | 185° |
| 2026-05-06 19:21 | 37.46270 | -77.36648 | 28893 ft | 396 kts | 152° |
| 2026-05-06 19:21 | 37.44379 | -77.33972 | 28895 ft | 428 kts | 119° |
| 2026-05-06 19:21 | 37.43721 | -77.30308 | 29210 ft | 435 kts | 86° |
| 2026-05-06 19:21 | 37.44435 | -77.26646 | 29250 ft | 433 kts | 56° |
| 2026-05-06 19:22 | 37.46341 | -77.23795 | 29012 ft | 421 kts | 24° |
| 2026-05-06 19:22 | 37.48943 | -77.22509 | 28940 ft | 387 kts | 351° |
| 2026-05-06 19:22 | 37.51379 | -77.23016 | 29219 ft | 339 kts | 317° |
| 2026-05-06 19:22 | 37.53005 | -77.24872 | 29263 ft | 303 kts | 287° |
| 2026-05-06 19:23 | 37.53382 | -77.27372 | 29012 ft | 294 kts | 255° |
| 2026-05-06 19:23 | 37.52361 | -77.29603 | 28886 ft | 310 kts | 223° |
| 2026-05-06 19:23 | 37.50271 | -77.30585 | 28974 ft | 342 kts | 189° |
| 2026-05-06 19:23 | 37.47872 | -77.29787 | 28912 ft | 386 kts | 154° |
| 2026-05-06 19:24 | 37.45942 | -77.27203 | 28403 ft | 432 kts | 119° |
| 2026-05-06 19:24 | 37.45093 | -77.23553 | 28665 ft | 435 kts | 95° |
| 2026-05-06 19:24 | 37.45418 | -77.19867 | 29472 ft | 416 kts | 65° |
| 2026-05-06 19:24 | 37.46843 | -77.16836 | 29380 ft | 408 kts | 36° |
| 2026-05-06 19:25 | 37.49176 | -77.14882 | 28547 ft | 404 kts | 5° |
| 2026-05-06 19:25 | 37.51856 | -77.14714 | 28154 ft | 371 kts | 329° |
| 2026-05-06 19:25 | 37.53812 | -77.16297 | 28831 ft | 310 kts | 295° |
| 2026-05-06 19:25 | 37.54510 | -77.18637 | 29355 ft | 277 kts | 264° |
| 2026-05-06 19:26 | 37.53933 | -77.20933 | 29097 ft | 290 kts | 234° |
| 2026-05-06 19:26 | 37.52176 | -77.22467 | 28400 ft | 339 kts | 202° |
| 2026-05-06 19:26 | 37.49683 | -77.22353 | 28301 ft | 384 kts | 167° |
| 2026-05-06 19:26 | 37.47474 | -77.20360 | 28789 ft | 405 kts | 134° |
| 2026-05-06 19:27 | 37.46221 | -77.17124 | 28996 ft | 424 kts | 103° |
| 2026-05-06 19:27 | 37.46221 | -77.13351 | 28643 ft | 441 kts | 71° |
| 2026-05-06 19:27 | 37.47610 | -77.09953 | 28379 ft | 435 kts | 37° |
| 2026-05-06 19:27 | 37.50003 | -77.07942 | 28626 ft | 397 kts | 4° |
| 2026-05-06 19:28 | 37.52541 | -77.07674 | 28843 ft | 354 kts | 333° |
| 2026-05-06 19:28 | 37.54623 | -77.08956 | 28688 ft | 322 kts | 302° |
| 2026-05-06 19:28 | 37.55611 | -77.11321 | 28488 ft | 302 kts | 270° |
| 2026-05-06 19:28 | 37.55152 | -77.13827 | 28582 ft | 301 kts | 236° |
| 2026-05-06 19:29 | 37.53457 | -77.15435 | 28786 ft | 324 kts | 204° |
| 2026-05-06 19:29 | 37.51103 | -77.15519 | 28754 ft | 364 kts | 173° |
| 2026-05-06 19:29 | 37.48794 | -77.13855 | 28584 ft | 408 kts | 140° |
| 2026-05-06 19:29 | 37.47303 | -77.10705 | 28539 ft | 434 kts | 107° |
| 2026-05-06 19:30 | 37.47161 | -77.06910 | 28687 ft | 439 kts | 74° |
| 2026-05-06 19:30 | 37.48391 | -77.03465 | 28748 ft | 429 kts | 43° |
| 2026-05-06 19:30 | 37.50640 | -77.01170 | 28563 ft | 408 kts | 11° |
| 2026-05-06 19:30 | 37.53250 | -77.00591 | 28514 ft | 370 kts | 338° |
| 2026-05-06 19:31 | 37.55460 | -77.01717 | 28671 ft | 325 kts | 306° |
| 2026-05-06 19:31 | 37.56594 | -77.03965 | 28750 ft | 297 kts | 274° |
| 2026-05-06 19:31 | 37.54840 | -77.08325 | 28541 ft | 325 kts | 210° |
| 2026-05-06 19:32 | 37.52505 | -77.08671 | 28599 ft | 363 kts | 176° |
| 2026-05-06 19:32 | 37.50144 | -77.07227 | 28708 ft | 399 kts | 144° |
| 2026-05-06 19:32 | 37.48504 | -77.04272 | 28679 ft | 429 kts | 112° |
| 2026-05-06 19:32 | 37.48110 | -77.00503 | 28595 ft | 444 kts | 80° |
| 2026-05-06 19:33 | 37.49140 | -76.96889 | 28606 ft | 436 kts | 47° |
| 2026-05-06 19:33 | 37.51278 | -76.94392 | 28701 ft | 409 kts | 15° |
| 2026-05-06 19:33 | 37.53884 | -76.93542 | 28709 ft | 373 kts | 343° |
| 2026-05-06 19:33 | 37.56190 | -76.94387 | 28651 ft | 335 kts | 311° |
| 2026-05-06 19:34 | 37.57555 | -76.96523 | 28624 ft | 305 kts | 279° |
| 2026-05-06 19:34 | 37.57547 | -76.99078 | 28692 ft | 296 kts | 247° |
| 2026-05-06 19:34 | 37.56210 | -77.01076 | 28713 ft | 316 kts | 215° |
| 2026-05-06 19:34 | 37.53967 | -77.01717 | 28671 ft | 355 kts | 182° |
| 2026-05-06 19:35 | 37.51541 | -77.00584 | 28633 ft | 396 kts | 150° |
| 2026-05-06 19:35 | 37.49721 | -76.97817 | 28666 ft | 427 kts | 117° |
| 2026-05-06 19:35 | 37.49111 | -76.94116 | 28695 ft | 442 kts | 85° |
| 2026-05-06 19:35 | 37.49913 | -76.90418 | 28703 ft | 438 kts | 53° |
| 2026-05-06 19:36 | 37.51867 | -76.87705 | 28712 ft | 416 kts | 21° |
| 2026-05-06 19:36 | 37.54453 | -76.86535 | 28742 ft | 380 kts | 349° |
| 2026-05-06 19:36 | 37.56884 | -76.87115 | 28802 ft | 338 kts | 317° |
| 2026-05-06 19:36 | 37.58452 | -76.89058 | 28748 ft | 307 kts | 285° |
| 2026-05-06 19:37 | 37.58711 | -76.91613 | 28692 ft | 297 kts | 253° |
| 2026-05-06 19:37 | 37.57579 | -76.93796 | 28698 ft | 313 kts | 220° |
| 2026-05-06 19:37 | 37.55447 | -76.94703 | 28750 ft | 347 kts | 188° |
| 2026-05-06 19:37 | 37.53818 | -76.94357 | 28776 ft | 374 kts | 167° |
| 2026-05-06 19:38 | 37.51040 | -76.91379 | 28738 ft | 422 kts | 123° |
| 2026-05-06 19:38 | 37.50184 | -76.87783 | 28722 ft | 441 kts | 91° |
| 2026-05-06 19:38 | 37.50722 | -76.84051 | 28748 ft | 440 kts | 59° |
| 2026-05-06 19:38 | 37.52511 | -76.81058 | 28734 ft | 421 kts | 27° |
| 2026-05-06 19:39 | 37.55034 | -76.79564 | 28736 ft | 387 kts | 355° |
| 2026-05-06 19:39 | 37.57542 | -76.79835 | 28779 ft | 345 kts | 322° |
| 2026-05-06 19:39 | 37.59285 | -76.81586 | 28807 ft | 308 kts | 290° |
| 2026-05-06 19:39 | 37.59760 | -76.84078 | 28809 ft | 292 kts | 258° |
| 2026-05-06 19:40 | 37.58843 | -76.86347 | 28796 ft | 306 kts | 226° |
| 2026-05-06 19:40 | 37.56835 | -76.87495 | 28754 ft | 341 kts | 193° |
| 2026-05-06 19:40 | 37.54392 | -76.86944 | 28724 ft | 383 kts | 160° |
| 2026-05-06 19:40 | 37.52309 | -76.84654 | 28735 ft | 418 kts | 128° |
| 2026-05-06 19:41 | 37.51272 | -76.81152 | 28752 ft | 439 kts | 95° |
| 2026-05-06 19:41 | 37.51630 | -76.77330 | 28782 ft | 441 kts | 63° |
| 2026-05-06 19:41 | 37.53289 | -76.74198 | 28809 ft | 423 kts | 31° |
| 2026-05-06 19:41 | 37.55753 | -76.72504 | 28839 ft | 390 kts | 359° |
| 2026-05-06 19:42 | 37.58296 | -76.72559 | 28825 ft | 349 kts | 327° |
| 2026-05-06 19:42 | 37.60168 | -76.74155 | 28826 ft | 312 kts | 294° |
| 2026-05-06 19:42 | 37.60812 | -76.76574 | 28846 ft | 293 kts | 262° |
| 2026-05-06 19:42 | 37.60068 | -76.78918 | 28879 ft | 301 kts | 230° |
| 2026-05-06 19:43 | 37.58179 | -76.80232 | 28898 ft | 333 kts | 197° |
| 2026-05-06 19:43 | 37.55754 | -76.79892 | 28898 ft | 376 kts | 165° |
| 2026-05-06 19:43 | 37.53598 | -76.77798 | 28923 ft | 414 kts | 132° |
| 2026-05-06 19:43 | 37.52417 | -76.74409 | 28954 ft | 437 kts | 99° |
| 2026-05-06 19:44 | 37.52607 | -76.70591 | 28985 ft | 441 kts | 67° |
| 2026-05-06 19:44 | 37.54130 | -76.67332 | 28999 ft | 426 kts | 34° |
| 2026-05-06 19:44 | 37.56538 | -76.65437 | 29011 ft | 395 kts | 2° |
| 2026-05-06 19:44 | 37.59109 | -76.65295 | 29035 ft | 354 kts | 330° |
| 2026-05-06 19:45 | 37.61083 | -76.66745 | 29062 ft | 315 kts | 297° |
| 2026-05-06 19:45 | 37.61869 | -76.69142 | 29074 ft | 292 kts | 265° |
| 2026-05-06 19:45 | 37.61247 | -76.71535 | 29077 ft | 299 kts | 233° |
| 2026-05-06 19:45 | 37.59433 | -76.72964 | 29078 ft | 330 kts | 200° |
| 2026-05-06 19:46 | 37.57028 | -76.72765 | 29090 ft | 372 kts | 167° |
| 2026-05-06 19:46 | 37.54853 | -76.70838 | 29112 ft | 410 kts | 135° |
| 2026-05-06 19:46 | 37.53556 | -76.67529 | 29122 ft | 436 kts | 102° |
| 2026-05-06 19:46 | 37.53609 | -76.63712 | 29138 ft | 443 kts | 70° |
| 2026-05-06 19:47 | 37.55025 | -76.60348 | 29167 ft | 429 kts | 38° |
| 2026-05-06 19:47 | 37.57381 | -76.58299 | 29188 ft | 399 kts | 5° |
| 2026-05-06 19:47 | 37.59975 | -76.57983 | 29201 ft | 358 kts | 333° |
| 2026-05-06 19:47 | 37.62046 | -76.59300 | 29188 ft | 319 kts | 301° |
| 2026-05-06 19:48 | 37.62972 | -76.61646 | 29203 ft | 294 kts | 268° |
| 2026-05-06 19:48 | 37.62487 | -76.64089 | 29221 ft | 297 kts | 236° |
| 2026-05-06 19:48 | 37.60777 | -76.65647 | 29225 ft | 326 kts | 203° |
| 2026-05-06 19:48 | 37.59232 | -76.65840 | 29230 ft | 353 kts | 182° |
| 2026-05-06 19:49 | 37.56164 | -76.63877 | 29223 ft | 407 kts | 138° |
| 2026-05-06 19:49 | 37.54748 | -76.60678 | 29236 ft | 434 kts | 106° |
| 2026-05-06 19:49 | 37.54661 | -76.56849 | 29260 ft | 443 kts | 73° |
| 2026-05-06 19:49 | 37.55950 | -76.53404 | 29276 ft | 431 kts | 41° |
| 2026-05-06 19:50 | 37.57423 | -76.51736 | 29279 ft | 414 kts | 19° |
| 2026-05-06 19:50 | 37.59980 | -76.50661 | 29289 ft | 377 kts | 347° |
| 2026-05-06 19:50 | 37.62368 | -76.51305 | 29294 ft | 335 kts | 315° |
| 2026-05-06 19:50 | 37.63856 | -76.53299 | 29321 ft | 301 kts | 283° |
| 2026-05-06 19:51 | 37.64001 | -76.55822 | 29325 ft | 291 kts | 250° |
| 2026-05-06 19:51 | 37.62782 | -76.57883 | 29320 ft | 311 kts | 218° |
| 2026-05-06 19:51 | 37.60609 | -76.58623 | 29327 ft | 349 kts | 185° |
| 2026-05-06 19:51 | 37.58201 | -76.57601 | 29333 ft | 391 kts | 152° |
| 2026-05-06 19:52 | 37.56342 | -76.54929 | 29341 ft | 425 kts | 120° |
| 2026-05-06 19:52 | 37.55655 | -76.51255 | 29372 ft | 442 kts | 87° |
| 2026-05-06 19:52 | 37.56389 | -76.47525 | 29410 ft | 437 kts | 54° |
| 2026-05-06 19:52 | 37.58327 | -76.44739 | 29523 ft | 414 kts | 22° |
| 2026-05-06 19:53 | 37.60888 | -76.43506 | 29505 ft | 380 kts | 351° |
| 2026-05-06 19:53 | 37.63340 | -76.44013 | 29417 ft | 343 kts | 318° |
| 2026-05-06 19:53 | 37.64945 | -76.45948 | 29415 ft | 309 kts | 285° |
| 2026-05-06 19:53 | 37.65213 | -76.48501 | 29508 ft | 294 kts | 253° |
| 2026-05-06 19:54 | 37.64107 | -76.50658 | 29569 ft | 309 kts | 221° |
| 2026-05-06 19:54 | 37.61997 | -76.51558 | 29612 ft | 345 kts | 188° |
| 2026-05-06 19:54 | 37.59574 | -76.50712 | 29650 ft | 387 kts | 156° |
| 2026-05-06 19:54 | 37.57652 | -76.48230 | 29623 ft | 421 kts | 123° |
| 2026-05-06 19:55 | 37.56822 | -76.44631 | 29616 ft | 440 kts | 90° |
| 2026-05-06 19:55 | 37.57403 | -76.40867 | 29635 ft | 439 kts | 58° |
| 2026-05-06 19:55 | 37.59237 | -76.37914 | 29655 ft | 420 kts | 26° |
| 2026-05-06 19:55 | 37.61775 | -76.36483 | 29646 ft | 386 kts | 354° |
| 2026-05-06 19:56 | 37.64282 | -76.36810 | 29630 ft | 346 kts | 322° |
| 2026-05-06 19:56 | 37.66007 | -76.38606 | 29637 ft | 311 kts | 289° |
| 2026-05-06 19:56 | 37.66452 | -76.41133 | 29659 ft | 294 kts | 257° |
| 2026-05-06 19:56 | 37.65500 | -76.43393 | 29672 ft | 306 kts | 225° |
| 2026-05-06 19:57 | 37.63506 | -76.44488 | 29669 ft | 340 kts | 192° |
| 2026-05-06 19:57 | 37.61074 | -76.43890 | 29678 ft | 382 kts | 160° |
| 2026-05-06 19:57 | 37.59027 | -76.41557 | 29691 ft | 417 kts | 127° |
| 2026-05-06 19:57 | 37.58043 | -76.38031 | 29688 ft | 439 kts | 94° |
| 2026-05-06 19:58 | 37.58461 | -76.34235 | 29672 ft | 441 kts | 62° |
| 2026-05-06 19:58 | 37.60171 | -76.31144 | 29683 ft | 424 kts | 30° |
| 2026-05-06 19:58 | 37.62672 | -76.29514 | 29696 ft | 391 kts | 357° |
| 2026-05-06 19:58 | 37.65218 | -76.29647 | 29696 ft | 351 kts | 325° |
| 2026-05-06 19:59 | 37.67066 | -76.31307 | 29688 ft | 314 kts | 293° |
| 2026-05-06 19:59 | 37.67671 | -76.33796 | 29692 ft | 295 kts | 261° |
| 2026-05-06 19:59 | 37.66866 | -76.36138 | 29703 ft | 303 kts | 228° |
| 2026-05-06 19:59 | 37.64934 | -76.37400 | 29719 ft | 336 kts | 195° |
| 2026-05-06 20:00 | 37.62508 | -76.36983 | 29723 ft | 377 kts | 163° |
| 2026-05-06 20:00 | 37.60382 | -76.34828 | 29743 ft | 414 kts | 131° |
| 2026-05-06 20:00 | 37.59250 | -76.31412 | 29744 ft | 437 kts | 98° |
| 2026-05-06 20:00 | 37.59479 | -76.27637 | 29720 ft | 442 kts | 66° |
| 2026-05-06 20:01 | 37.61037 | -76.24393 | 29742 ft | 428 kts | 34° |
| 2026-05-06 20:01 | 37.63470 | -76.22540 | 29781 ft | 396 kts | 1° |
| 2026-05-06 20:01 | 37.66080 | -76.22450 | 29794 ft | 355 kts | 329° |
| 2026-05-06 20:01 | 37.68030 | -76.23930 | 29754 ft | 318 kts | 297° |
| 2026-05-06 20:02 | 37.68814 | -76.26363 | 29715 ft | 296 kts | 265° |
| 2026-05-06 20:02 | 37.68180 | -76.28780 | 29748 ft | 301 kts | 232° |
| 2026-05-06 20:02 | 37.66363 | -76.30214 | 29777 ft | 330 kts | 200° |
| 2026-05-06 20:02 | 37.63956 | -76.30022 | 29764 ft | 372 kts | 167° |
| 2026-05-06 20:03 | 37.61752 | -76.28060 | 29754 ft | 410 kts | 134° |
| 2026-05-06 20:03 | 37.60476 | -76.24745 | 29775 ft | 435 kts | 102° |
| 2026-05-06 20:03 | 37.60554 | -76.20929 | 29802 ft | 441 kts | 70° |
| 2026-05-06 20:03 | 37.61984 | -76.17589 | 29789 ft | 429 kts | 37° |
| 2026-05-06 20:04 | 37.64359 | -76.15560 | 29769 ft | 400 kts | 5° |
| 2026-05-06 20:04 | 37.66968 | -76.15286 | 29793 ft | 360 kts | 333° |
| 2026-05-06 20:04 | 37.69029 | -76.16649 | 29805 ft | 320 kts | 300° |
| 2026-05-06 20:04 | 37.69937 | -76.19025 | 29798 ft | 296 kts | 268° |
| 2026-05-06 20:05 | 37.69437 | -76.21485 | 29765 ft | 300 kts | 235° |
| 2026-05-06 20:05 | 37.67729 | -76.23042 | 29763 ft | 327 kts | 203° |
| 2026-05-06 20:05 | 37.65346 | -76.23029 | 29783 ft | 368 kts | 170° |
| 2026-05-06 20:05 | 37.63090 | -76.21227 | 29789 ft | 406 kts | 137° |
| 2026-05-06 20:06 | 37.61704 | -76.18004 | 29801 ft | 433 kts | 105° |
| 2026-05-06 20:06 | 37.61661 | -76.14175 | 29772 ft | 441 kts | 72° |
| 2026-05-06 20:06 | 37.62979 | -76.10813 | 29817 ft | 430 kts | 40° |
| 2026-05-06 20:06 | 37.65325 | -76.08653 | 29868 ft | 401 kts | 7° |
| 2026-05-06 20:07 | 37.67899 | -76.08235 | 29845 ft | 364 kts | 336° |
| 2026-05-06 20:07 | 37.70055 | -76.09460 | 29791 ft | 326 kts | 304° |
| 2026-05-06 20:07 | 37.71106 | -76.11797 | 29797 ft | 300 kts | 271° |
| 2026-05-06 20:07 | 37.70745 | -76.14304 | 29850 ft | 298 kts | 238° |
| 2026-05-06 20:08 | 37.69122 | -76.16001 | 29874 ft | 323 kts | 206° |
| 2026-05-06 20:08 | 37.66778 | -76.16164 | 29854 ft | 363 kts | 173° |
| 2026-05-06 20:08 | 37.64473 | -76.14539 | 29820 ft | 404 kts | 141° |
| 2026-05-06 20:08 | 37.62980 | -76.11423 | 29845 ft | 430 kts | 108° |
| 2026-05-06 20:09 | 37.62765 | -76.10170 | 29873 ft | 435 kts | 96° |
| 2026-05-06 20:09 | 37.63194 | -76.06006 | 29915 ft | 437 kts | 61° |
| 2026-05-06 20:09 | 37.64919 | -76.02954 | 29923 ft | 421 kts | 30° |
| 2026-05-06 20:09 | 37.67356 | -76.01306 | 30013 ft | 389 kts | 0° |
| 2026-05-06 20:10 | 37.69899 | -76.01225 | 30180 ft | 348 kts | 331° |
| 2026-05-06 20:10 | 37.71897 | -76.02547 | 30279 ft | 310 kts | 302° |
| 2026-05-06 20:10 | 37.72903 | -76.04828 | 30181 ft | 290 kts | 272° |
| 2026-05-06 20:10 | 37.72624 | -76.07283 | 29952 ft | 296 kts | 241° |
| 2026-05-06 20:11 | 37.71089 | -76.09121 | 29748 ft | 324 kts | 210° |
| 2026-05-06 20:11 | 37.68767 | -76.09499 | 29781 ft | 360 kts | 177° |
| 2026-05-06 20:11 | 37.66416 | -76.08084 | 29907 ft | 397 kts | 144° |
| 2026-05-06 20:11 | 37.64817 | -76.05115 | 29859 ft | 428 kts | 111° |
| 2026-05-06 20:12 | 37.64525 | -76.01316 | 29661 ft | 445 kts | 77° |
| 2026-05-06 20:12 | 37.65699 | -75.97759 | 29627 ft | 438 kts | 44° |
| 2026-05-06 20:12 | 37.67952 | -75.95428 | 29854 ft | 406 kts | 11° |
| 2026-05-06 20:12 | 37.70553 | -75.94780 | 30085 ft | 362 kts | 340° |
| 2026-05-06 20:13 | 37.72781 | -75.95718 | 30183 ft | 322 kts | 310° |
| 2026-05-06 20:13 | 37.74091 | -75.97805 | 30050 ft | 298 kts | 279° |
| 2026-05-06 20:13 | 37.74126 | -76.00320 | 29802 ft | 297 kts | 249° |
| 2026-05-06 20:13 | 37.72843 | -76.02406 | 29706 ft | 317 kts | 217° |
| 2026-05-06 20:14 | 37.70654 | -76.03161 | 29887 ft | 347 kts | 185° |
| 2026-05-06 20:14 | 37.68265 | -76.02171 | 30011 ft | 384 kts | 153° |
| 2026-05-06 20:14 | 37.66414 | -75.99568 | 29922 ft | 419 kts | 121° |
| 2026-05-06 20:14 | 37.65669 | -75.95933 | 29822 ft | 439 kts | 89° |
| 2026-05-06 20:15 | 37.66298 | -75.92186 | 29911 ft | 437 kts | 58° |
| 2026-05-06 20:15 | 37.68110 | -75.89250 | 30072 ft | 415 kts | 27° |
| 2026-05-06 20:15 | 37.70533 | -75.87699 | 30255 ft | 381 kts | 359° |
| 2026-05-06 20:15 | 37.73027 | -75.87626 | 30337 ft | 343 kts | 332° |
| 2026-05-06 20:16 | 37.75047 | -75.88882 | 30328 ft | 311 kts | 304° |
| 2026-05-06 20:16 | 37.76165 | -75.91049 | 30248 ft | 291 kts | 277° |
| 2026-05-06 20:16 | 37.76124 | -75.93545 | 30134 ft | 289 kts | 248° |
| 2026-05-06 20:16 | 37.74885 | -75.95578 | 30051 ft | 308 kts | 218° |
| 2026-05-06 20:17 | 37.72753 | -75.96402 | 29987 ft | 344 kts | 187° |
| 2026-05-06 20:17 | 37.70335 | -75.95556 | 29955 ft | 385 kts | 155° |
| 2026-05-06 20:17 | 37.68380 | -75.93080 | 29952 ft | 417 kts | 124° |
| 2026-05-06 20:17 | 37.67488 | -75.89537 | 30018 ft | 434 kts | 94° |
| 2026-05-06 20:18 | 37.67876 | -75.85785 | 30174 ft | 431 kts | 65° |
| 2026-05-06 20:18 | 37.69360 | -75.82609 | 30384 ft | 413 kts | 38° |
| 2026-05-06 20:18 | 37.71552 | -75.80466 | 30556 ft | 386 kts | 13° |
| 2026-05-06 20:18 | 37.74022 | -75.79546 | 30609 ft | 358 kts | 350° |
| 2026-05-06 20:19 | 37.76357 | -75.79818 | 30584 ft | 330 kts | 327° |
| 2026-05-06 20:19 | 37.78282 | -75.81127 | 30580 ft | 304 kts | 305° |
| 2026-05-06 20:19 | 37.79484 | -75.83175 | 30657 ft | 282 kts | 283° |
| 2026-05-06 20:19 | 37.79775 | -75.85546 | 30738 ft | 271 kts | 260° |
| 2026-05-06 20:20 | 37.79102 | -75.87767 | 30706 ft | 279 kts | 236° |
| 2026-05-06 20:20 | 37.77569 | -75.89380 | 30572 ft | 304 kts | 212° |
| 2026-05-06 20:20 | 37.75414 | -75.89992 | 30510 ft | 335 kts | 188° |
| 2026-05-06 20:20 | 37.73057 | -75.89354 | 30613 ft | 362 kts | 165° |
| 2026-05-06 20:21 | 37.70918 | -75.87522 | 30796 ft | 382 kts | 142° |
| 2026-05-06 20:21 | 37.69310 | -75.84781 | 30896 ft | 399 kts | 122° |
| 2026-05-06 20:21 | 37.68364 | -75.81442 | 30907 ft | 411 kts | 103° |
| 2026-05-06 20:21 | 37.68123 | -75.77827 | 30942 ft | 415 kts | 86° |
| 2026-05-06 20:22 | 37.68539 | -75.74254 | 31100 ft | 409 kts | 71° |
| 2026-05-06 20:22 | 37.69504 | -75.70913 | 31291 ft | 400 kts | 58° |
| 2026-05-06 20:22 | 37.70892 | -75.67913 | 31357 ft | 392 kts | 46° |
| 2026-05-06 20:22 | 37.72604 | -75.65262 | 31317 ft | 388 kts | 37° |
| 2026-05-06 20:23 | 37.76659 | -75.61003 | 31395 ft | 374 kts | 22° |
| 2026-05-06 20:23 | 37.78856 | -75.59320 | 31568 ft | 364 kts | 16° |
| 2026-05-06 20:23 | 37.81087 | -75.57862 | 31610 ft | 359 kts | 13° |
| 2026-05-06 20:24 | 37.85636 | -75.55223 | 31526 ft | 362 kts | 12° |
| 2026-05-06 20:24 | 37.90143 | -75.52204 | 31600 ft | 371 kts | 22° |
| 2026-05-06 20:25 | 37.92247 | -75.50236 | 31596 ft | 382 kts | 32° |
| 2026-05-06 20:25 | 37.94133 | -75.47792 | 31469 ft | 398 kts | 45° |
| 2026-05-06 20:25 | 37.95635 | -75.44767 | 31252 ft | 416 kts | 63° |
| 2026-05-06 20:25 | 37.96466 | -75.41200 | 30985 ft | 430 kts | 85° |
| 2026-05-06 20:26 | 37.96269 | -75.37410 | 30728 ft | 432 kts | 113° |
| 2026-05-06 20:26 | 37.94822 | -75.34171 | 30314 ft | 419 kts | 147° |
| 2026-05-06 20:26 | 37.92350 | -75.32583 | 29489 ft | 392 kts | 189° |
| 2026-05-06 20:26 | 37.89963 | -75.33656 | 28092 ft | 369 kts | 239° |
| 2026-05-06 20:27 | 37.89754 | -75.36771 | 25916 ft | 409 kts | 304° |
| 2026-05-06 20:27 | 37.92640 | -75.37649 | 22446 ft | 532 kts | 28° |
| 2026-05-06 20:27 | 37.94022 | -75.33358 | 20661 ft | 574 kts | 115° |
| 2026-05-06 20:27 | 37.91060 | -75.31298 | 19267 ft | 499 kts | 212° |
| 2026-05-06 20:28 | 37.90748 | -75.34609 | 14038 ft | 486 kts | 332° |
| 2026-05-06 20:28 | 37.92995 | -75.32159 | 8825 ft | 579 kts | 111° |
| 2026-05-06 20:28 | 37.90266 | -75.31741 | 5812 ft | 514 kts | 258° |
| 2026-05-06 20:28 | 37.92726 | -75.33154 | 3235 ft | 566 kts | 58° |
| 2026-05-06 20:29 | 37.91917 | -75.30336 | 675 ft | 235 kts | 155° |
| 2026-05-06 20:29 | 37.90674 | -75.30298 | 2636 ft | 174 kts | 227° |
| 2026-05-06 20:29 | 37.90646 | -75.31861 | 50 ft | 45 kts | 323° |
| 2026-05-06 20:29 | 37.90696 | -75.31945 | 8 ft | 0 kts | 41° |
| 2026-05-06 20:30 | 37.90696 | -75.31944 | 8 ft | 0 kts | 41° |
| 2026-05-06 20:30 | 37.90697 | -75.31944 | 7 ft | 0 kts | 41° |
| 2026-05-06 20:30 | 37.90697 | -75.31943 | 8 ft | 0 kts | 41° |
| 2026-05-06 20:31 | 37.90698 | -75.31943 | 7 ft | 0 kts | 41° |
| 2026-05-06 20:31 | 37.90698 | -75.31942 | 7 ft | 0 kts | 41° |
| 2026-05-06 20:31 | 37.90699 | -75.31942 | 7 ft | 0 kts | 41° |
| 2026-05-06 20:32 | 37.90699 | -75.31941 | 7 ft | 0 kts | 40° |
| 2026-05-06 20:32 | 37.90700 | -75.31941 | 7 ft | 0 kts | 41° |
| 2026-05-06 20:33 | 37.90701 | -75.31941 | 7 ft | 0 kts | 41° |
| 2026-05-06 20:33 | 37.90701 | -75.31940 | 7 ft | 0 kts | 41° |
| 2026-05-06 20:34 | 37.90702 | -75.31940 | 7 ft | 0 kts | 41° |
| 2026-05-06 20:34 | 37.90702 | -75.31939 | 6 ft | 0 kts | 41° |
| 2026-05-06 20:35 | 37.90703 | -75.31938 | 6 ft | 0 kts | 41° |
| 2026-05-06 20:35 | 37.90704 | -75.31938 | 6 ft | 0 kts | 40° |
| 2026-05-06 20:36 | 37.90704 | -75.31937 | 6 ft | 0 kts | 40° |
| 2026-05-06 20:36 | 37.90705 | -75.31936 | 6 ft | 0 kts | 40° |
| 2026-05-06 20:37 | 37.90706 | -75.31936 | 7 ft | 0 kts | 40° |
| 2026-05-06 20:37 | 37.90706 | -75.31935 | 6 ft | 0 kts | 40° |
| 2026-05-06 20:38 | 37.90707 | -75.31935 | 6 ft | 0 kts | 40° |
| 2026-05-06 20:38 | 37.90707 | -75.31934 | 6 ft | 0 kts | 40° |
| 2026-05-06 20:38 | 37.90708 | -75.31934 | 6 ft | 0 kts | 40° |
| 2026-05-06 20:39 | 37.90709 | -75.31933 | 6 ft | 0 kts | 40° |
| 2026-05-06 20:40 | 37.90710 | -75.31932 | 5 ft | 0 kts | 40° |
| 2026-05-06 20:41 | 37.90711 | -75.31931 | 6 ft | 0 kts | 40° |
| 2026-05-06 20:41 | 37.90712 | -75.31931 | 6 ft | 0 kts | 39° |
| 2026-05-06 20:42 | 37.90712 | -75.31930 | 6 ft | 0 kts | 40° |
| 2026-05-06 20:42 | 37.90713 | -75.31929 | 6 ft | 0 kts | 40° |
| 2026-05-06 20:43 | 37.90713 | -75.31928 | 6 ft | 0 kts | 40° |
| 2026-05-06 20:43 | 37.90714 | -75.31928 | 6 ft | 0 kts | 39° |
| 2026-05-06 20:44 | 37.90715 | -75.31927 | 6 ft | 0 kts | 39° |
| 2026-05-06 20:45 | 37.90716 | -75.31927 | 6 ft | 0 kts | 39° |
| 2026-05-06 20:45 | 37.90716 | -75.31926 | 5 ft | 0 kts | 39° |
| 2026-05-06 20:45 | 37.90716 | -75.31925 | 6 ft | 0 kts | 39° |
| 2026-05-06 20:46 | 37.90717 | -75.31925 | 6 ft | 0 kts | 39° |
| 2026-05-06 20:46 | 37.90718 | -75.31925 | 6 ft | 0 kts | 39° |
| 2026-05-06 20:46 | 37.90718 | -75.31924 | 6 ft | 0 kts | 38° |
| 2026-05-06 20:47 | 37.90719 | -75.31924 | 5 ft | 0 kts | 38° |
| 2026-05-06 20:47 | 37.90719 | -75.31923 | 6 ft | 0 kts | 38° |
| 2026-05-06 20:48 | 37.90720 | -75.31923 | 6 ft | 0 kts | 38° |
| 2026-05-06 20:48 | 37.90720 | -75.31922 | 6 ft | 0 kts | 38° |
| 2026-05-06 20:49 | 37.90721 | -75.31922 | 6 ft | 0 kts | 38° |
| 2026-05-06 20:49 | 37.90721 | -75.31921 | 6 ft | 0 kts | 38° |
| 2026-05-06 20:49 | 37.90722 | -75.31921 | 6 ft | 0 kts | 38° |
| 2026-05-06 20:50 | 37.90723 | -75.31920 | 6 ft | 0 kts | 38° |
| 2026-05-06 20:51 | 37.90724 | -75.31920 | 6 ft | 0 kts | 37° |
| 2026-05-06 20:51 | 37.90724 | -75.31919 | 6 ft | 0 kts | 37° |
| 2026-05-06 20:51 | 37.90725 | -75.31919 | 6 ft | 0 kts | 37° |
| 2026-05-06 20:52 | 37.90726 | -75.31918 | 5 ft | 0 kts | 37° |
| 2026-05-06 20:53 | 37.90726 | -75.31917 | 5 ft | 0 kts | 37° |
| 2026-05-06 20:53 | 37.90727 | -75.31917 | 5 ft | 0 kts | 37° |
| 2026-05-06 20:53 | 37.90728 | -75.31917 | 6 ft | 0 kts | 37° |
| 2026-05-06 20:54 | 37.90728 | -75.31916 | 5 ft | 0 kts | 37° |
| 2026-05-06 20:54 | 37.90729 | -75.31916 | 6 ft | 0 kts | 37° |
| 2026-05-06 20:55 | 37.90729 | -75.31915 | 5 ft | 0 kts | 37° |
| 2026-05-06 20:55 | 37.90730 | -75.31915 | 5 ft | 0 kts | 36° |
| 2026-05-06 20:56 | 37.90730 | -75.31914 | 6 ft | 0 kts | 36° |
| 2026-05-06 20:56 | 37.90731 | -75.31914 | 5 ft | 0 kts | 36° |
| 2026-05-06 20:57 | 37.90732 | -75.31913 | 5 ft | 0 kts | 36° |
| 2026-05-06 20:57 | 37.90733 | -75.31912 | 5 ft | 0 kts | 36° |
| 2026-05-06 20:58 | 37.90734 | -75.31912 | 5 ft | 0 kts | 36° |
| 2026-05-06 20:58 | 37.90734 | -75.31911 | 5 ft | 0 kts | 36° |
| 2026-05-06 20:59 | 37.90735 | -75.31911 | 6 ft | 0 kts | 36° |
| 2026-05-06 21:00 | 37.90735 | -75.31910 | 6 ft | 0 kts | 36° |
| 2026-05-06 21:00 | 37.90736 | -75.31910 | 4 ft | 0 kts | 36° |
| 2026-05-06 21:01 | 37.90737 | -75.31909 | 3 ft | 0 kts | 36° |
| 2026-05-06 21:02 | 37.90737 | -75.31908 | 3 ft | 0 kts | 36° |
| 2026-05-06 21:02 | 37.90738 | -75.31908 | 4 ft | 0 kts | 36° |
| 2026-05-06 21:04 | 37.90739 | -75.31908 | 3 ft | 0 kts | 36° |
| 2026-05-06 21:04 | 37.90739 | -75.31907 | 4 ft | 0 kts | 36° |
| 2026-05-06 21:05 | 37.90740 | -75.31907 | 5 ft | 0 kts | 36° |
| 2026-05-06 21:06 | 37.90740 | -75.31906 | 5 ft | 0 kts | 35° |
| 2026-05-06 21:07 | 37.90741 | -75.31906 | 5 ft | 0 kts | 35° |
| 2026-05-06 21:08 | 37.90742 | -75.31905 | 5 ft | 0 kts | 36° |
| 2026-05-06 21:10 | 37.90743 | -75.31904 | 5 ft | 0 kts | 35° |
| 2026-05-06 21:11 | 37.90744 | -75.31904 | 5 ft | 0 kts | 35° |
| 2026-05-06 21:12 | 37.90744 | -75.31903 | 5 ft | 0 kts | 35° |
| 2026-05-06 21:13 | 37.90745 | -75.31903 | 5 ft | 0 kts | 35° |
| 2026-05-06 21:14 | 37.90745 | -75.31902 | 7 ft | 0 kts | 35° |
| 2026-05-06 21:15 | 37.90746 | -75.31902 | 7 ft | 0 kts | 34° |
| 2026-05-06 21:16 | 37.90746 | -75.31901 | 7 ft | 0 kts | 34° |
| 2026-05-06 21:17 | 37.90747 | -75.31901 | 7 ft | 0 kts | 34° |
| 2026-05-06 21:18 | 37.90747 | -75.31900 | 7 ft | 0 kts | 34° |
| 2026-05-06 21:18 | 37.90748 | -75.31900 | 7 ft | 0 kts | 34° |
| 2026-05-06 21:20 | 37.90748 | -75.31899 | 5 ft | 0 kts | 34° |
| 2026-05-06 21:20 | 37.90749 | -75.31899 | 6 ft | 0 kts | 34° |
| 2026-05-06 21:22 | 37.90750 | -75.31899 | 6 ft | 0 kts | 34° |
| 2026-05-06 21:22 | 37.90750 | -75.31898 | 6 ft | 0 kts | 34° |
| 2026-05-06 21:23 | 37.90751 | -75.31898 | 6 ft | 0 kts | 34° |
| 2026-05-06 21:24 | 37.90751 | -75.31897 | 6 ft | 0 kts | 34° |
| 2026-05-06 21:25 | 37.90752 | -75.31897 | 6 ft | 0 kts | 33° |
| 2026-05-06 21:26 | 37.90752 | -75.31896 | 6 ft | 0 kts | 33° |